sensor_id;sensor_type;location;lat;lon;timestamp;P1;durP1;ratioP1;P2;durP2;ratioP2
15699;SDS011;7950;42.744;23.174;2023-10-08T00:01:16;8.27;;;4.10;;
15699;SDS011;7950;42.744;23.174;2023-10-08T00:03:45;5.27;;;3.60;;
15699;SDS011;7950;42.744;23.174;2023-10-08T00:06:18;7.90;;;4.03;;
15699;SDS011;7950;42.744;23.174;2023-10-08T00:08:49;6.50;;;4.10;;
15699;SDS011;7950;42.744;23.174;2023-10-08T00:11:27;7.43;;;3.90;;
15699;SDS011;7950;42.744;23.174;2023-10-08T00:13:56;5.93;;;3.77;;
15699;SDS011;7950;42.744;23.174;2023-10-08T00:16:27;5.97;;;4.00;;
15699;SDS011;7950;42.744;23.174;2023-10-08T00:19:00;9.90;;;4.37;;
15699;SDS011;7950;42.744;23.174;2023-10-08T00:21:35;5.30;;;3.80;;
15699;SDS011;7950;42.744;23.174;2023-10-08T00:24:05;5.10;;;3.50;;
15699;SDS011;7950;42.744;23.174;2023-10-08T00:26:37;7.50;;;4.00;;
15699;SDS011;7950;42.744;23.174;2023-10-08T00:29:08;7.03;;;4.30;;
15699;SDS011;7950;42.744;23.174;2023-10-08T00:31:44;5.73;;;3.87;;
15699;SDS011;7950;42.744;23.174;2023-10-08T00:34:14;5.87;;;4.00;;
15699;SDS011;7950;42.744;23.174;2023-10-08T00:36:46;8.17;;;4.37;;
15699;SDS011;7950;42.744;23.174;2023-10-08T00:39:16;6.10;;;3.43;;
15699;SDS011;7950;42.744;23.174;2023-10-08T00:41:51;8.23;;;3.77;;
15699;SDS011;7950;42.744;23.174;2023-10-08T00:44:26;5.00;;;3.90;;
15699;SDS011;7950;42.744;23.174;2023-10-08T00:46:57;4.27;;;3.63;;
15699;SDS011;7950;42.744;23.174;2023-10-08T00:49:28;9.20;;;4.07;;
15699;SDS011;7950;42.744;23.174;2023-10-08T00:52:14;7.33;;;4.10;;
15699;SDS011;7950;42.744;23.174;2023-10-08T00:55:00;7.73;;;3.80;;
15699;SDS011;7950;42.744;23.174;2023-10-08T00:57:42;7.30;;;3.83;;
15699;SDS011;7950;42.744;23.174;2023-10-08T01:00:15;7.70;;;3.83;;
15699;SDS011;7950;42.744;23.174;2023-10-08T01:02:47;6.93;;;4.10;;
15699;SDS011;7950;42.744;23.174;2023-10-08T01:05:27;5.17;;;3.80;;
15699;SDS011;7950;42.744;23.174;2023-10-08T01:08:14;5.73;;;3.70;;
15699;SDS011;7950;42.744;23.174;2023-10-08T01:10:49;8.77;;;3.90;;
15699;SDS011;7950;42.744;23.174;2023-10-08T01:13:31;6.53;;;3.70;;
15699;SDS011;7950;42.744;23.174;2023-10-08T01:16:09;6.53;;;4.03;;
15699;SDS011;7950;42.744;23.174;2023-10-08T01:18:38;8.37;;;4.80;;
15699;SDS011;7950;42.744;23.174;2023-10-08T01:21:17;8.33;;;3.90;;
15699;SDS011;7950;42.744;23.174;2023-10-08T01:24:10;6.50;;;3.73;;
15699;SDS011;7950;42.744;23.174;2023-10-08T01:26:43;7.13;;;4.17;;
15699;SDS011;7950;42.744;23.174;2023-10-08T01:29:11;5.47;;;3.73;;
15699;SDS011;7950;42.744;23.174;2023-10-08T01:31:47;6.60;;;4.13;;
15699;SDS011;7950;42.744;23.174;2023-10-08T01:34:16;6.10;;;3.47;;
15699;SDS011;7950;42.744;23.174;2023-10-08T01:36:53;8.23;;;3.90;;
15699;SDS011;7950;42.744;23.174;2023-10-08T01:39:23;6.50;;;4.10;;
15699;SDS011;7950;42.744;23.174;2023-10-08T01:41:53;6.80;;;3.90;;
15699;SDS011;7950;42.744;23.174;2023-10-08T01:44:21;6.27;;;4.17;;
15699;SDS011;7950;42.744;23.174;2023-10-08T01:46:50;7.33;;;3.80;;
15699;SDS011;7950;42.744;23.174;2023-10-08T01:49:19;6.23;;;4.40;;
15699;SDS011;7950;42.744;23.174;2023-10-08T01:51:51;6.93;;;3.87;;
15699;SDS011;7950;42.744;23.174;2023-10-08T01:54:20;7.63;;;4.23;;
15699;SDS011;7950;42.744;23.174;2023-10-08T01:56:52;8.00;;;4.30;;
15699;SDS011;7950;42.744;23.174;2023-10-08T01:59:21;8.63;;;4.60;;
15699;SDS011;7950;42.744;23.174;2023-10-08T02:01:50;6.90;;;4.07;;
15699;SDS011;7950;42.744;23.174;2023-10-08T02:04:22;9.03;;;4.30;;
15699;SDS011;7950;42.744;23.174;2023-10-08T02:06:52;8.77;;;4.03;;
15699;SDS011;7950;42.744;23.174;2023-10-08T02:09:22;9.57;;;4.30;;
15699;SDS011;7950;42.744;23.174;2023-10-08T02:11:53;7.77;;;4.40;;
15699;SDS011;7950;42.744;23.174;2023-10-08T02:14:22;9.30;;;4.50;;
15699;SDS011;7950;42.744;23.174;2023-10-08T02:16:51;7.63;;;4.40;;
15699;SDS011;7950;42.744;23.174;2023-10-08T02:19:23;9.70;;;4.10;;
15699;SDS011;7950;42.744;23.174;2023-10-08T02:21:55;7.87;;;4.60;;
15699;SDS011;7950;42.744;23.174;2023-10-08T02:24:26;9.37;;;4.40;;
15699;SDS011;7950;42.744;23.174;2023-10-08T02:26:56;7.20;;;4.67;;
15699;SDS011;7950;42.744;23.174;2023-10-08T02:29:26;8.30;;;4.27;;
15699;SDS011;7950;42.744;23.174;2023-10-08T02:31:58;7.50;;;4.27;;
15699;SDS011;7950;42.744;23.174;2023-10-08T02:34:26;8.07;;;4.53;;
15699;SDS011;7950;42.744;23.174;2023-10-08T02:36:57;9.30;;;4.33;;
15699;SDS011;7950;42.744;23.174;2023-10-08T02:39:27;7.10;;;4.60;;
15699;SDS011;7950;42.744;23.174;2023-10-08T02:41:57;7.27;;;4.70;;
15699;SDS011;7950;42.744;23.174;2023-10-08T02:44:26;7.30;;;4.00;;
15699;SDS011;7950;42.744;23.174;2023-10-08T02:46:55;9.37;;;4.47;;
15699;SDS011;7950;42.744;23.174;2023-10-08T02:49:24;8.07;;;4.80;;
15699;SDS011;7950;42.744;23.174;2023-10-08T02:51:57;8.77;;;4.17;;
15699;SDS011;7950;42.744;23.174;2023-10-08T02:54:25;7.43;;;4.10;;
15699;SDS011;7950;42.744;23.174;2023-10-08T02:57:02;9.20;;;4.13;;
15699;SDS011;7950;42.744;23.174;2023-10-08T02:59:37;6.90;;;4.47;;
15699;SDS011;7950;42.744;23.174;2023-10-08T03:02:09;7.73;;;4.70;;
15699;SDS011;7950;42.744;23.174;2023-10-08T03:04:41;10.03;;;5.03;;
15699;SDS011;7950;42.744;23.174;2023-10-08T03:07:12;9.13;;;4.17;;
15699;SDS011;7950;42.744;23.174;2023-10-08T03:09:51;9.90;;;4.37;;
15699;SDS011;7950;42.744;23.174;2023-10-08T03:12:30;8.07;;;4.30;;
15699;SDS011;7950;42.744;23.174;2023-10-08T03:14:59;6.43;;;4.13;;
15699;SDS011;7950;42.744;23.174;2023-10-08T03:17:39;7.23;;;4.33;;
15699;SDS011;7950;42.744;23.174;2023-10-08T03:20:15;8.40;;;4.37;;
15699;SDS011;7950;42.744;23.174;2023-10-08T03:23:05;8.97;;;3.97;;
15699;SDS011;7950;42.744;23.174;2023-10-08T03:25:41;12.87;;;4.73;;
15699;SDS011;7950;42.744;23.174;2023-10-08T03:28:12;5.67;;;3.60;;
15699;SDS011;7950;42.744;23.174;2023-10-08T03:30:43;6.27;;;4.07;;
15699;SDS011;7950;42.744;23.174;2023-10-08T03:33:18;6.00;;;3.90;;
15699;SDS011;7950;42.744;23.174;2023-10-08T03:35:53;9.17;;;4.20;;
15699;SDS011;7950;42.744;23.174;2023-10-08T03:38:22;9.47;;;4.30;;
15699;SDS011;7950;42.744;23.174;2023-10-08T03:41:06;7.70;;;4.37;;
15699;SDS011;7950;42.744;23.174;2023-10-08T03:43:42;9.27;;;4.50;;
15699;SDS011;7950;42.744;23.174;2023-10-08T03:46:19;8.67;;;4.47;;
15699;SDS011;7950;42.744;23.174;2023-10-08T03:48:50;6.10;;;3.83;;
15699;SDS011;7950;42.744;23.174;2023-10-08T03:51:20;6.07;;;4.00;;
15699;SDS011;7950;42.744;23.174;2023-10-08T03:53:53;7.53;;;4.20;;
15699;SDS011;7950;42.744;23.174;2023-10-08T03:56:27;6.10;;;4.40;;
15699;SDS011;7950;42.744;23.174;2023-10-08T03:58:58;6.30;;;3.73;;
15699;SDS011;7950;42.744;23.174;2023-10-08T04:01:30;7.67;;;4.20;;
15699;SDS011;7950;42.744;23.174;2023-10-08T04:04:00;7.80;;;4.13;;
15699;SDS011;7950;42.744;23.174;2023-10-08T04:06:29;10.57;;;4.47;;
15699;SDS011;7950;42.744;23.174;2023-10-08T04:09:04;7.83;;;4.50;;
15699;SDS011;7950;42.744;23.174;2023-10-08T04:11:44;8.37;;;4.13;;
15699;SDS011;7950;42.744;23.174;2023-10-08T04:14:24;6.03;;;3.97;;
15699;SDS011;7950;42.744;23.174;2023-10-08T04:16:54;6.57;;;4.30;;
15699;SDS011;7950;42.744;23.174;2023-10-08T04:19:25;10.27;;;4.40;;
15699;SDS011;7950;42.744;23.174;2023-10-08T04:21:54;7.03;;;4.00;;
15699;SDS011;7950;42.744;23.174;2023-10-08T04:24:24;7.77;;;4.27;;
15699;SDS011;7950;42.744;23.174;2023-10-08T04:27:02;7.10;;;4.10;;
15699;SDS011;7950;42.744;23.174;2023-10-08T04:29:35;6.97;;;3.83;;
15699;SDS011;7950;42.744;23.174;2023-10-08T04:32:04;6.00;;;4.23;;
15699;SDS011;7950;42.744;23.174;2023-10-08T04:34:39;9.07;;;4.13;;
15699;SDS011;7950;42.744;23.174;2023-10-08T04:37:13;7.70;;;4.17;;
15699;SDS011;7950;42.744;23.174;2023-10-08T04:39:46;6.50;;;4.03;;
15699;SDS011;7950;42.744;23.174;2023-10-08T04:42:25;9.00;;;4.50;;
15699;SDS011;7950;42.744;23.174;2023-10-08T04:44:54;7.37;;;4.00;;
15699;SDS011;7950;42.744;23.174;2023-10-08T04:47:25;7.73;;;4.07;;
15699;SDS011;7950;42.744;23.174;2023-10-08T04:50:00;8.47;;;4.10;;
15699;SDS011;7950;42.744;23.174;2023-10-08T04:52:31;7.80;;;4.30;;
15699;SDS011;7950;42.744;23.174;2023-10-08T04:55:12;7.13;;;3.53;;
15699;SDS011;7950;42.744;23.174;2023-10-08T04:57:48;7.17;;;4.20;;
15699;SDS011;7950;42.744;23.174;2023-10-08T05:00:16;6.80;;;3.70;;
15699;SDS011;7950;42.744;23.174;2023-10-08T05:03:07;5.97;;;3.67;;
15699;SDS011;7950;42.744;23.174;2023-10-08T05:05:41;6.87;;;4.17;;
15699;SDS011;7950;42.744;23.174;2023-10-08T05:08:34;9.37;;;4.67;;
15699;SDS011;7950;42.744;23.174;2023-10-08T05:11:14;10.43;;;4.50;;
15699;SDS011;7950;42.744;23.174;2023-10-08T05:13:53;10.90;;;4.70;;
15699;SDS011;7950;42.744;23.174;2023-10-08T05:16:32;8.57;;;4.47;;
15699;SDS011;7950;42.744;23.174;2023-10-08T05:19:10;12.13;;;4.80;;
15699;SDS011;7950;42.744;23.174;2023-10-08T05:22:15;9.17;;;4.30;;
15699;SDS011;7950;42.744;23.174;2023-10-08T05:25:10;9.90;;;4.27;;
15699;SDS011;7950;42.744;23.174;2023-10-08T05:27:52;25.70;;;5.63;;
15699;SDS011;7950;42.744;23.174;2023-10-08T05:30:26;10.87;;;4.90;;
15699;SDS011;7950;42.744;23.174;2023-10-08T05:33:05;8.27;;;4.70;;
15699;SDS011;7950;42.744;23.174;2023-10-08T05:35:39;7.37;;;4.33;;
15699;SDS011;7950;42.744;23.174;2023-10-08T05:38:21;7.10;;;4.27;;
15699;SDS011;7950;42.744;23.174;2023-10-08T05:41:05;9.00;;;4.30;;
15699;SDS011;7950;42.744;23.174;2023-10-08T05:43:54;7.07;;;4.20;;
15699;SDS011;7950;42.744;23.174;2023-10-08T05:46:42;6.27;;;4.50;;
15699;SDS011;7950;42.744;23.174;2023-10-08T05:49:33;8.93;;;5.00;;
15699;SDS011;7950;42.744;23.174;2023-10-08T05:52:21;55.03;;;25.87;;
15699;SDS011;7950;42.744;23.174;2023-10-08T05:54:52;82.13;;;32.80;;
15699;SDS011;7950;42.744;23.174;2023-10-08T05:57:38;83.43;;;37.03;;
15699;SDS011;7950;42.744;23.174;2023-10-08T06:00:13;64.70;;;28.87;;
15699;SDS011;7950;42.744;23.174;2023-10-08T06:02:57;64.77;;;28.00;;
15699;SDS011;7950;42.744;23.174;2023-10-08T06:05:37;40.17;;;19.87;;
15699;SDS011;7950;42.744;23.174;2023-10-08T06:08:14;19.30;;;9.03;;
15699;SDS011;7950;42.744;23.174;2023-10-08T06:10:47;28.60;;;14.20;;
15699;SDS011;7950;42.744;23.174;2023-10-08T06:13:27;40.57;;;18.80;;
15699;SDS011;7950;42.744;23.174;2023-10-08T06:16:11;34.03;;;16.47;;
15699;SDS011;7950;42.744;23.174;2023-10-08T06:18:59;27.03;;;13.37;;
15699;SDS011;7950;42.744;23.174;2023-10-08T06:21:27;26.03;;;13.37;;
15699;SDS011;7950;42.744;23.174;2023-10-08T06:23:55;23.27;;;12.10;;
15699;SDS011;7950;42.744;23.174;2023-10-08T06:26:24;22.60;;;11.33;;
15699;SDS011;7950;42.744;23.174;2023-10-08T06:28:54;19.97;;;9.87;;
15699;SDS011;7950;42.744;23.174;2023-10-08T06:31:25;19.40;;;9.57;;
15699;SDS011;7950;42.744;23.174;2023-10-08T06:33:54;19.70;;;8.43;;
15699;SDS011;7950;42.744;23.174;2023-10-08T06:36:25;19.00;;;7.33;;
15699;SDS011;7950;42.744;23.174;2023-10-08T06:38:54;25.47;;;8.20;;
15699;SDS011;7950;42.744;23.174;2023-10-08T06:41:26;18.23;;;7.73;;
15699;SDS011;7950;42.744;23.174;2023-10-08T06:44:14;17.57;;;6.93;;
15699;SDS011;7950;42.744;23.174;2023-10-08T06:46:43;12.57;;;6.80;;
15699;SDS011;7950;42.744;23.174;2023-10-08T06:49:12;16.30;;;7.07;;
15699;SDS011;7950;42.744;23.174;2023-10-08T06:51:43;17.97;;;6.83;;
15699;SDS011;7950;42.744;23.174;2023-10-08T06:54:12;11.73;;;5.50;;
15699;SDS011;7950;42.744;23.174;2023-10-08T06:56:43;6.47;;;4.20;;
15699;SDS011;7950;42.744;23.174;2023-10-08T06:59:19;8.33;;;3.87;;
15699;SDS011;7950;42.744;23.174;2023-10-08T07:01:51;8.27;;;4.03;;
15699;SDS011;7950;42.744;23.174;2023-10-08T07:04:19;8.17;;;4.20;;
15699;SDS011;7950;42.744;23.174;2023-10-08T07:06:52;8.63;;;4.20;;
15699;SDS011;7950;42.744;23.174;2023-10-08T07:09:20;9.07;;;5.60;;
15699;SDS011;7950;42.744;23.174;2023-10-08T07:11:57;4.70;;;3.67;;
15699;SDS011;7950;42.744;23.174;2023-10-08T07:14:32;5.90;;;3.53;;
15699;SDS011;7950;42.744;23.174;2023-10-08T07:17:02;7.30;;;4.03;;
15699;SDS011;7950;42.744;23.174;2023-10-08T07:19:35;7.93;;;3.60;;
15699;SDS011;7950;42.744;23.174;2023-10-08T07:22:07;4.53;;;3.73;;
15699;SDS011;7950;42.744;23.174;2023-10-08T07:24:49;5.50;;;3.67;;
15699;SDS011;7950;42.744;23.174;2023-10-08T07:27:19;10.67;;;3.90;;
15699;SDS011;7950;42.744;23.174;2023-10-08T07:29:51;6.13;;;3.70;;
15699;SDS011;7950;42.744;23.174;2023-10-08T07:32:23;5.43;;;3.60;;
15699;SDS011;7950;42.744;23.174;2023-10-08T07:34:53;7.77;;;3.97;;
15699;SDS011;7950;42.744;23.174;2023-10-08T07:37:43;3.97;;;3.10;;
15699;SDS011;7950;42.744;23.174;2023-10-08T07:40:12;5.67;;;3.40;;
15699;SDS011;7950;42.744;23.174;2023-10-08T07:42:41;5.57;;;3.27;;
15699;SDS011;7950;42.744;23.174;2023-10-08T07:45:11;8.87;;;3.60;;
15699;SDS011;7950;42.744;23.174;2023-10-08T07:47:44;7.60;;;4.03;;
15699;SDS011;7950;42.744;23.174;2023-10-08T07:50:13;8.60;;;3.80;;
15699;SDS011;7950;42.744;23.174;2023-10-08T07:52:44;8.00;;;3.60;;
15699;SDS011;7950;42.744;23.174;2023-10-08T07:55:12;6.80;;;4.33;;
15699;SDS011;7950;42.744;23.174;2023-10-08T07:57:45;4.70;;;3.40;;
15699;SDS011;7950;42.744;23.174;2023-10-08T08:00:14;5.13;;;3.63;;
15699;SDS011;7950;42.744;23.174;2023-10-08T08:02:50;8.43;;;4.37;;
15699;SDS011;7950;42.744;23.174;2023-10-08T08:05:22;6.67;;;4.07;;
15699;SDS011;7950;42.744;23.174;2023-10-08T08:07:53;5.97;;;3.70;;
15699;SDS011;7950;42.744;23.174;2023-10-08T08:10:25;6.70;;;3.80;;
15699;SDS011;7950;42.744;23.174;2023-10-08T08:12:53;5.13;;;3.60;;
15699;SDS011;7950;42.744;23.174;2023-10-08T08:15:23;5.10;;;3.50;;
15699;SDS011;7950;42.744;23.174;2023-10-08T08:17:55;6.60;;;3.30;;
15699;SDS011;7950;42.744;23.174;2023-10-08T08:20:24;4.97;;;3.50;;
15699;SDS011;7950;42.744;23.174;2023-10-08T08:23:03;4.57;;;3.80;;
15699;SDS011;7950;42.744;23.174;2023-10-08T08:25:37;5.33;;;4.17;;
15699;SDS011;7950;42.744;23.174;2023-10-08T08:28:12;9.20;;;3.83;;
15699;SDS011;7950;42.744;23.174;2023-10-08T08:30:47;5.97;;;3.80;;
15699;SDS011;7950;42.744;23.174;2023-10-08T08:33:19;5.53;;;3.93;;
15699;SDS011;7950;42.744;23.174;2023-10-08T08:35:59;8.40;;;4.47;;
15699;SDS011;7950;42.744;23.174;2023-10-08T08:38:33;15.63;;;5.17;;
15699;SDS011;7950;42.744;23.174;2023-10-08T08:41:03;5.93;;;3.70;;
15699;SDS011;7950;42.744;23.174;2023-10-08T08:43:34;5.53;;;3.60;;
15699;SDS011;7950;42.744;23.174;2023-10-08T08:46:03;5.97;;;3.70;;
15699;SDS011;7950;42.744;23.174;2023-10-08T08:48:34;6.10;;;4.10;;
15699;SDS011;7950;42.744;23.174;2023-10-08T08:51:05;5.20;;;3.70;;
15699;SDS011;7950;42.744;23.174;2023-10-08T08:53:37;7.33;;;3.90;;
15699;SDS011;7950;42.744;23.174;2023-10-08T08:56:08;12.27;;;4.93;;
15699;SDS011;7950;42.744;23.174;2023-10-08T08:58:38;8.03;;;3.87;;
15699;SDS011;7950;42.744;23.174;2023-10-08T09:01:09;9.03;;;6.00;;
15699;SDS011;7950;42.744;23.174;2023-10-08T09:03:42;7.03;;;3.67;;
15699;SDS011;7950;42.744;23.174;2023-10-08T09:06:14;4.80;;;3.37;;
15699;SDS011;7950;42.744;23.174;2023-10-08T09:08:45;8.47;;;4.30;;
15699;SDS011;7950;42.744;23.174;2023-10-08T09:11:16;7.73;;;4.10;;
15699;SDS011;7950;42.744;23.174;2023-10-08T09:13:45;6.07;;;3.80;;
15699;SDS011;7950;42.744;23.174;2023-10-08T09:16:14;7.03;;;3.80;;
15699;SDS011;7950;42.744;23.174;2023-10-08T09:18:44;6.10;;;4.17;;
15699;SDS011;7950;42.744;23.174;2023-10-08T09:21:17;7.10;;;4.30;;
15699;SDS011;7950;42.744;23.174;2023-10-08T09:23:50;5.07;;;3.60;;
15699;SDS011;7950;42.744;23.174;2023-10-08T09:26:22;7.17;;;4.63;;
15699;SDS011;7950;42.744;23.174;2023-10-08T09:28:52;8.40;;;6.13;;
15699;SDS011;7950;42.744;23.174;2023-10-08T09:31:22;13.57;;;10.73;;
15699;SDS011;7950;42.744;23.174;2023-10-08T09:33:54;8.87;;;6.43;;
15699;SDS011;7950;42.744;23.174;2023-10-08T09:36:24;8.37;;;6.47;;
15699;SDS011;7950;42.744;23.174;2023-10-08T09:39:01;5.87;;;5.13;;
15699;SDS011;7950;42.744;23.174;2023-10-08T09:41:32;9.80;;;8.70;;
15699;SDS011;7950;42.744;23.174;2023-10-08T09:44:03;13.80;;;11.00;;
15699;SDS011;7950;42.744;23.174;2023-10-08T09:46:38;9.57;;;8.23;;
15699;SDS011;7950;42.744;23.174;2023-10-08T09:49:13;8.07;;;6.03;;
15699;SDS011;7950;42.744;23.174;2023-10-08T09:51:45;8.77;;;4.50;;
15699;SDS011;7950;42.744;23.174;2023-10-08T09:54:20;7.40;;;4.03;;
15699;SDS011;7950;42.744;23.174;2023-10-08T09:57:00;7.30;;;3.27;;
15699;SDS011;7950;42.744;23.174;2023-10-08T09:59:33;5.57;;;4.93;;
15699;SDS011;7950;42.744;23.174;2023-10-08T10:02:04;6.83;;;4.53;;
15699;SDS011;7950;42.744;23.174;2023-10-08T10:04:41;8.03;;;4.40;;
15699;SDS011;7950;42.744;23.174;2023-10-08T10:07:12;9.10;;;4.40;;
15699;SDS011;7950;42.744;23.174;2023-10-08T10:09:45;7.30;;;5.00;;
15699;SDS011;7950;42.744;23.174;2023-10-08T10:12:18;6.47;;;5.40;;
15699;SDS011;7950;42.744;23.174;2023-10-08T10:14:52;6.17;;;3.30;;
15699;SDS011;7950;42.744;23.174;2023-10-08T10:17:24;5.17;;;3.23;;
15699;SDS011;7950;42.744;23.174;2023-10-08T10:20:10;7.60;;;3.40;;
15699;SDS011;7950;42.744;23.174;2023-10-08T10:22:41;5.70;;;3.43;;
15699;SDS011;7950;42.744;23.174;2023-10-08T10:25:15;6.07;;;4.03;;
15699;SDS011;7950;42.744;23.174;2023-10-08T10:30:51;4.50;;;3.20;;
15699;SDS011;7950;42.744;23.174;2023-10-08T10:33:20;5.40;;;3.60;;
15699;SDS011;7950;42.744;23.174;2023-10-08T10:35:53;4.20;;;3.27;;
15699;SDS011;7950;42.744;23.174;2023-10-08T10:38:22;5.70;;;3.63;;
15699;SDS011;7950;42.744;23.174;2023-10-08T10:40:55;8.80;;;5.20;;
15699;SDS011;7950;42.744;23.174;2023-10-08T10:43:34;12.93;;;6.50;;
15699;SDS011;7950;42.744;23.174;2023-10-08T10:46:06;7.97;;;4.20;;
15699;SDS011;7950;42.744;23.174;2023-10-08T10:48:49;7.23;;;4.07;;
15699;SDS011;7950;42.744;23.174;2023-10-08T10:51:31;8.60;;;3.67;;
15699;SDS011;7950;42.744;23.174;2023-10-08T10:54:00;5.37;;;3.30;;
15699;SDS011;7950;42.744;23.174;2023-10-08T10:56:38;5.43;;;3.30;;
15699;SDS011;7950;42.744;23.174;2023-10-08T10:59:09;5.87;;;3.30;;
15699;SDS011;7950;42.744;23.174;2023-10-08T11:01:47;5.03;;;3.67;;
15699;SDS011;7950;42.744;23.174;2023-10-08T11:04:19;6.77;;;3.10;;
15699;SDS011;7950;42.744;23.174;2023-10-08T11:06:56;5.33;;;3.47;;
15699;SDS011;7950;42.744;23.174;2023-10-08T11:09:27;4.63;;;3.60;;
15699;SDS011;7950;42.744;23.174;2023-10-08T11:12:07;3.83;;;3.00;;
15699;SDS011;7950;42.744;23.174;2023-10-08T11:14:38;6.97;;;3.23;;
15699;SDS011;7950;42.744;23.174;2023-10-08T11:17:12;5.17;;;3.03;;
15699;SDS011;7950;42.744;23.174;2023-10-08T11:19:42;5.87;;;3.10;;
15699;SDS011;7950;42.744;23.174;2023-10-08T11:22:13;4.30;;;3.00;;
15699;SDS011;7950;42.744;23.174;2023-10-08T11:24:45;7.60;;;3.40;;
15699;SDS011;7950;42.744;23.174;2023-10-08T11:27:17;5.67;;;3.30;;
15699;SDS011;7950;42.744;23.174;2023-10-08T11:29:56;10.27;;;3.50;;
15699;SDS011;7950;42.744;23.174;2023-10-08T11:32:27;4.50;;;3.10;;
15699;SDS011;7950;42.744;23.174;2023-10-08T11:34:59;8.17;;;3.93;;
15699;SDS011;7950;42.744;23.174;2023-10-08T11:37:44;6.53;;;3.60;;
15699;SDS011;7950;42.744;23.174;2023-10-08T11:40:24;5.87;;;3.57;;
15699;SDS011;7950;42.744;23.174;2023-10-08T11:42:58;10.60;;;4.53;;
15699;SDS011;7950;42.744;23.174;2023-10-08T11:45:30;6.50;;;4.07;;
15699;SDS011;7950;42.744;23.174;2023-10-08T11:48:05;9.77;;;4.07;;
15699;SDS011;7950;42.744;23.174;2023-10-08T11:50:39;7.93;;;5.00;;
15699;SDS011;7950;42.744;23.174;2023-10-08T11:53:07;9.43;;;4.27;;
15699;SDS011;7950;42.744;23.174;2023-10-08T11:55:38;12.33;;;4.47;;
15699;SDS011;7950;42.744;23.174;2023-10-08T11:58:08;8.30;;;4.03;;
15699;SDS011;7950;42.744;23.174;2023-10-08T12:00:38;8.33;;;4.47;;
15699;SDS011;7950;42.744;23.174;2023-10-08T12:03:13;6.03;;;3.20;;
15699;SDS011;7950;42.744;23.174;2023-10-08T12:05:46;9.37;;;3.40;;
15699;SDS011;7950;42.744;23.174;2023-10-08T12:08:18;11.63;;;4.13;;
15699;SDS011;7950;42.744;23.174;2023-10-08T12:10:49;8.80;;;3.30;;
15699;SDS011;7950;42.744;23.174;2023-10-08T12:13:23;10.87;;;3.77;;
15699;SDS011;7950;42.744;23.174;2023-10-08T12:15:52;7.43;;;3.33;;
15699;SDS011;7950;42.744;23.174;2023-10-08T12:18:32;7.50;;;3.20;;
15699;SDS011;7950;42.744;23.174;2023-10-08T12:21:07;8.27;;;3.50;;
15699;SDS011;7950;42.744;23.174;2023-10-08T12:23:38;9.40;;;4.00;;
15699;SDS011;7950;42.744;23.174;2023-10-08T12:26:07;8.13;;;3.03;;
15699;SDS011;7950;42.744;23.174;2023-10-08T12:28:39;5.47;;;3.10;;
15699;SDS011;7950;42.744;23.174;2023-10-08T12:31:09;7.50;;;3.33;;
15699;SDS011;7950;42.744;23.174;2023-10-08T12:33:38;6.53;;;3.00;;
15699;SDS011;7950;42.744;23.174;2023-10-08T12:36:08;5.93;;;3.23;;
15699;SDS011;7950;42.744;23.174;2023-10-08T12:38:40;6.77;;;3.40;;
15699;SDS011;7950;42.744;23.174;2023-10-08T12:41:10;8.50;;;3.27;;
15699;SDS011;7950;42.744;23.174;2023-10-08T12:43:41;10.23;;;3.50;;
15699;SDS011;7950;42.744;23.174;2023-10-08T12:46:12;13.90;;;3.83;;
15699;SDS011;7950;42.744;23.174;2023-10-08T12:48:45;9.53;;;3.23;;
15699;SDS011;7950;42.744;23.174;2023-10-08T12:51:19;6.87;;;3.03;;
15699;SDS011;7950;42.744;23.174;2023-10-08T12:53:52;8.50;;;2.67;;
15699;SDS011;7950;42.744;23.174;2023-10-08T12:56:30;5.73;;;2.97;;
15699;SDS011;7950;42.744;23.174;2023-10-08T12:59:04;11.37;;;3.37;;
15699;SDS011;7950;42.744;23.174;2023-10-08T13:01:34;7.63;;;3.47;;
15699;SDS011;7950;42.744;23.174;2023-10-08T13:04:08;9.53;;;3.17;;
15699;SDS011;7950;42.744;23.174;2023-10-08T13:06:42;11.40;;;3.30;;
15699;SDS011;7950;42.744;23.174;2023-10-08T13:09:12;10.23;;;2.67;;
15699;SDS011;7950;42.744;23.174;2023-10-08T13:11:41;10.80;;;2.73;;
15699;SDS011;7950;42.744;23.174;2023-10-08T13:14:11;8.07;;;3.23;;
15699;SDS011;7950;42.744;23.174;2023-10-08T13:16:40;6.43;;;2.63;;
15699;SDS011;7950;42.744;23.174;2023-10-08T13:19:11;7.53;;;3.10;;
15699;SDS011;7950;42.744;23.174;2023-10-08T13:21:42;8.47;;;3.27;;
15699;SDS011;7950;42.744;23.174;2023-10-08T13:24:10;8.30;;;2.63;;
15699;SDS011;7950;42.744;23.174;2023-10-08T13:26:39;6.50;;;2.97;;
15699;SDS011;7950;42.744;23.174;2023-10-08T13:29:16;10.50;;;3.83;;
15699;SDS011;7950;42.744;23.174;2023-10-08T13:31:45;11.70;;;2.90;;
15699;SDS011;7950;42.744;23.174;2023-10-08T13:34:15;8.17;;;3.30;;
15699;SDS011;7950;42.744;23.174;2023-10-08T13:36:43;9.37;;;3.20;;
15699;SDS011;7950;42.744;23.174;2023-10-08T13:39:15;12.00;;;3.37;;
15699;SDS011;7950;42.744;23.174;2023-10-08T13:41:46;7.77;;;3.13;;
15699;SDS011;7950;42.744;23.174;2023-10-08T13:44:17;5.77;;;2.90;;
15699;SDS011;7950;42.744;23.174;2023-10-08T13:46:56;8.43;;;2.90;;
15699;SDS011;7950;42.744;23.174;2023-10-08T13:49:26;9.57;;;3.17;;
15699;SDS011;7950;42.744;23.174;2023-10-08T13:51:56;9.30;;;3.13;;
15699;SDS011;7950;42.744;23.174;2023-10-08T13:54:24;11.53;;;3.37;;
15699;SDS011;7950;42.744;23.174;2023-10-08T13:56:56;8.47;;;2.93;;
15699;SDS011;7950;42.744;23.174;2023-10-08T13:59:30;9.70;;;3.07;;
15699;SDS011;7950;42.744;23.174;2023-10-08T14:01:59;7.63;;;2.93;;
15699;SDS011;7950;42.744;23.174;2023-10-08T14:04:41;9.90;;;3.40;;
15699;SDS011;7950;42.744;23.174;2023-10-08T14:07:12;10.67;;;3.33;;
15699;SDS011;7950;42.744;23.174;2023-10-08T14:09:44;7.57;;;3.03;;
15699;SDS011;7950;42.744;23.174;2023-10-08T14:12:13;9.17;;;3.50;;
15699;SDS011;7950;42.744;23.174;2023-10-08T14:14:43;8.07;;;2.97;;
15699;SDS011;7950;42.744;23.174;2023-10-08T14:17:13;14.10;;;2.77;;
15699;SDS011;7950;42.744;23.174;2023-10-08T14:19:42;10.67;;;3.27;;
15699;SDS011;7950;42.744;23.174;2023-10-08T14:22:19;11.13;;;3.53;;
15699;SDS011;7950;42.744;23.174;2023-10-08T14:24:49;9.87;;;2.80;;
15699;SDS011;7950;42.744;23.174;2023-10-08T14:27:26;13.70;;;3.30;;
15699;SDS011;7950;42.744;23.174;2023-10-08T14:30:00;8.47;;;2.93;;
15699;SDS011;7950;42.744;23.174;2023-10-08T14:32:32;9.97;;;3.40;;
15699;SDS011;7950;42.744;23.174;2023-10-08T14:35:01;11.80;;;3.30;;
15699;SDS011;7950;42.744;23.174;2023-10-08T14:37:47;13.87;;;3.70;;
15699;SDS011;7950;42.744;23.174;2023-10-08T14:40:32;9.43;;;4.20;;
15699;SDS011;7950;42.744;23.174;2023-10-08T14:43:18;9.90;;;3.43;;
15699;SDS011;7950;42.744;23.174;2023-10-08T14:45:51;14.93;;;3.20;;
15699;SDS011;7950;42.744;23.174;2023-10-08T14:48:20;13.00;;;3.20;;
15699;SDS011;7950;42.744;23.174;2023-10-08T14:50:50;9.67;;;3.20;;
15699;SDS011;7950;42.744;23.174;2023-10-08T14:53:20;12.63;;;3.43;;
15699;SDS011;7950;42.744;23.174;2023-10-08T14:55:51;9.30;;;3.40;;
15699;SDS011;7950;42.744;23.174;2023-10-08T14:58:20;9.03;;;3.40;;
15699;SDS011;7950;42.744;23.174;2023-10-08T15:00:53;8.30;;;3.50;;
15699;SDS011;7950;42.744;23.174;2023-10-08T15:03:22;11.73;;;3.57;;
15699;SDS011;7950;42.744;23.174;2023-10-08T15:05:54;9.97;;;3.43;;
15699;SDS011;7950;42.744;23.174;2023-10-08T15:08:23;11.97;;;3.30;;
15699;SDS011;7950;42.744;23.174;2023-10-08T15:10:53;15.10;;;3.93;;
15699;SDS011;7950;42.744;23.174;2023-10-08T15:13:22;12.23;;;3.83;;
15699;SDS011;7950;42.744;23.174;2023-10-08T15:15:51;9.93;;;3.50;;
15699;SDS011;7950;42.744;23.174;2023-10-08T15:18:22;15.10;;;3.60;;
15699;SDS011;7950;42.744;23.174;2023-10-08T15:21:00;10.10;;;3.17;;
15699;SDS011;7950;42.744;23.174;2023-10-08T15:23:30;9.63;;;3.50;;
15699;SDS011;7950;42.744;23.174;2023-10-08T15:25:59;9.77;;;3.37;;